createdAt,value
2019-01-17T00:00:39.038Z,89.26
2019-01-17T00:03:25.403Z,89.43
2019-01-17T00:06:13.598Z,89.48
2019-01-17T00:09:00.496Z,89.69
2019-01-17T00:11:51.787Z,89.61
2019-01-17T00:14:38.903Z,89.88
2019-01-17T00:17:26.037Z,89.91
2019-01-17T00:20:19.285Z,90.03
2019-01-17T00:23:07.760Z,90.09
2019-01-17T00:25:55.245Z,89.99
2019-01-17T00:28:55.747Z,90.12
2019-01-17T00:31:32.145Z,90.45
2019-01-17T00:34:29.507Z,90.51
2019-01-17T00:37:26.966Z,90.61
2019-01-17T00:40:15.256Z,90.69
2019-01-17T00:43:01.712Z,90.48
2019-01-17T00:45:41.527Z,90.54
2019-01-17T00:48:32.137Z,90.48
2019-01-17T00:51:19.234Z,90.42
2019-01-17T00:54:09.022Z,90.38
2019-01-17T00:57:10.012Z,90.34
2019-01-17T00:59:58.444Z,90.35
2019-01-17T01:03:01.640Z,90.26
2019-01-17T01:05:44.151Z,90.18
2019-01-17T01:08:32.344Z,90.19
2019-01-17T01:11:19.529Z,90.08
2019-01-17T01:14:23.273Z,90.01
2019-01-17T01:17:14.221Z,89.99
2019-01-17T01:20:05.241Z,89.91
2019-01-17T01:23:05.863Z,89.82
2019-01-17T01:25:54.094Z,89.79
2019-01-17T01:28:54.640Z,89.90
2019-01-17T01:31:40.833Z,89.88
2019-01-17T01:34:22.429Z,89.79
2019-01-17T01:37:09.454Z,89.81
2019-01-17T01:40:06.915Z,89.87
2019-01-17T01:42:53.699Z,89.87
2019-01-17T01:45:31.246Z,89.81
2019-01-17T01:48:22.227Z,89.77
2019-01-17T01:51:16.844Z,89.79
2019-01-17T01:53:46.071Z,89.78
2019-01-17T01:56:15.247Z,89.67
2019-01-17T01:58:44.713Z,89.69
2019-01-17T02:01:13.917Z,89.62
2019-01-17T02:03:43.116Z,89.45
2019-01-17T02:06:12.413Z,89.38
2019-01-17T02:08:41.657Z,89.56
2019-01-17T02:11:10.872Z,89.54
2019-01-17T02:13:40.605Z,89.43
2019-01-17T02:16:09.825Z,89.24
2019-01-17T02:18:39.003Z,89.24
2019-01-17T02:21:08.457Z,89.24
2019-01-17T02:23:37.680Z,89.17
2019-01-17T02:26:06.876Z,88.88
2019-01-17T02:28:36.140Z,88.67
2019-01-17T02:31:05.481Z,88.60
2019-01-17T02:33:34.681Z,88.84
2019-01-17T02:36:04.043Z,88.74
2019-01-17T02:38:33.290Z,88.74
2019-01-17T02:41:02.497Z,88.67
2019-01-17T02:43:31.812Z,88.46
2019-01-17T02:46:01.054Z,88.39
2019-01-17T02:48:30.427Z,88.45
2019-01-17T02:50:59.899Z,88.12
2019-01-17T02:53:29.122Z,88.12
2019-01-17T02:55:58.308Z,88.15
2019-01-17T02:58:27.793Z,87.87
2019-01-17T03:00:57.081Z,87.69
2019-01-17T03:03:26.244Z,87.65
2019-01-17T03:05:55.904Z,87.65
2019-01-17T03:08:25.148Z,86.97
2019-01-17T03:10:54.348Z,86.97
2019-01-17T03:13:23.626Z,86.57
2019-01-17T03:15:52.871Z,86.55
2019-01-17T03:18:22.055Z,86.19
2019-01-17T03:20:51.426Z,86.14
2019-01-17T03:23:20.636Z,86.07
2019-01-17T03:25:49.835Z,86.32
2019-01-17T03:28:19.293Z,86.21
2019-01-17T03:30:48.510Z,86.09
2019-01-17T03:33:17.696Z,86.07
2019-01-17T03:35:47.194Z,85.98
2019-01-17T03:38:16.425Z,85.63
2019-01-17T03:40:45.610Z,85.50
2019-01-17T03:43:14.908Z,85.64
2019-01-17T03:45:44.144Z,85.36
2019-01-17T03:48:13.335Z,85.29
2019-01-17T03:50:43.102Z,85.10
2019-01-17T03:53:12.345Z,85.14
2019-01-17T03:55:41.706Z,84.93
2019-01-17T03:58:11.205Z,84.56
2019-01-17T04:00:40.475Z,84.59
2019-01-17T04:03:09.662Z,84.72
2019-01-17T04:05:38.971Z,84.91
2019-01-17T04:08:08.174Z,84.72
2019-01-17T04:10:37.361Z,84.82
2019-01-17T04:13:06.796Z,84.88
2019-01-17T04:15:36.024Z,84.80
2019-01-17T04:18:05.204Z,84.64
2019-01-17T04:20:34.498Z,84.33
2019-01-17T04:23:03.702Z,84.24
2019-01-17T04:25:32.895Z,84.50
2019-01-17T04:28:02.498Z,84.48
2019-01-17T04:30:31.753Z,84.36
2019-01-17T04:33:00.976Z,84.23
2019-01-17T04:35:30.300Z,84.45
2019-01-17T04:37:59.527Z,84.42
2019-01-17T04:40:28.718Z,84.33
2019-01-17T04:42:58.189Z,84.13
2019-01-17T04:45:27.430Z,84.05
2019-01-17T04:47:56.619Z,84.06
2019-01-17T04:50:26.092Z,83.93
2019-01-17T04:52:55.710Z,83.75
2019-01-17T04:55:24.901Z,83.64
2019-01-17T04:57:54.173Z,83.63
2019-01-17T05:00:23.413Z,83.31
2019-01-17T05:02:52.602Z,83.50
2019-01-17T05:05:22.197Z,83.53
2019-01-17T05:07:51.425Z,83.74
2019-01-17T05:10:20.687Z,83.75
2019-01-17T05:12:50.111Z,83.50
2019-01-17T05:15:19.465Z,83.42
2019-01-17T05:17:48.611Z,83.57
2019-01-17T05:20:18.332Z,83.70
2019-01-17T05:22:47.534Z,83.83
2019-01-17T05:25:16.719Z,83.68
2019-01-17T05:27:46.194Z,83.68
2019-01-17T05:30:18.861Z,83.91
2019-01-17T05:32:48.280Z,83.98
2019-01-17T05:35:17.509Z,83.86
2019-01-17T05:37:46.739Z,83.93
2019-01-17T05:40:20.374Z,84.09
2019-01-17T05:42:49.551Z,84.01
2019-01-17T05:45:18.823Z,84.10
2019-01-17T05:47:48.089Z,84.10
2019-01-17T05:50:18.220Z,84.20
2019-01-17T05:52:47.472Z,84.12
2019-01-17T05:55:20.076Z,84.26
2019-01-17T05:57:48.169Z,84.24
2019-01-17T06:00:19.715Z,84.17
2019-01-17T06:02:49.001Z,84.30
2019-01-17T06:05:19.021Z,84.33
2019-01-17T06:07:48.509Z,84.48
2019-01-17T06:10:17.689Z,84.55
2019-01-17T06:12:47.040Z,84.58
2019-01-17T06:15:20.764Z,84.55
2019-01-17T06:17:49.960Z,84.57
2019-01-17T06:20:19.250Z,84.69
2019-01-17T06:22:48.569Z,84.54
2019-01-17T06:25:18.223Z,84.68
2019-01-17T06:27:47.924Z,84.85
2019-01-17T06:30:17.163Z,84.88
2019-01-17T06:32:46.469Z,84.77
2019-01-17T06:35:15.788Z,84.76
2019-01-17T06:37:45.097Z,84.72
2019-01-17T06:40:20.785Z,84.76
2019-01-17T06:42:50.082Z,84.70
2019-01-17T06:45:19.394Z,84.82
2019-01-17T06:47:48.991Z,84.86
2019-01-17T06:50:18.215Z,84.92
2019-01-17T06:52:47.507Z,85.03
2019-01-17T06:55:16.980Z,84.97
2019-01-17T06:57:46.324Z,84.88
2019-01-17T07:00:16.624Z,85.01
2019-01-17T07:02:46.530Z,85.00
2019-01-17T07:05:16.337Z,84.91
2019-01-17T07:07:45.539Z,84.87
2019-01-17T07:10:16.066Z,84.92
2019-01-17T07:12:46.172Z,84.97
2019-01-17T07:15:15.663Z,84.98
2019-01-17T07:17:45.053Z,84.85
2019-01-17T07:20:15.270Z,84.82
2019-01-17T07:22:44.516Z,84.83
2019-01-17T07:25:13.918Z,84.76
2019-01-17T07:27:43.151Z,84.83
2019-01-17T07:30:21.580Z,84.87
2019-01-17T07:32:50.826Z,84.95
2019-01-17T07:35:20.467Z,84.93
2019-01-17T07:37:49.828Z,84.88
2019-01-17T07:40:19.047Z,84.84
2019-01-17T07:42:48.233Z,84.80
2019-01-17T07:45:28.889Z,84.81
2019-01-17T07:47:58.102Z,84.88
2019-01-17T07:50:27.289Z,84.83
2019-01-17T07:52:56.792Z,84.85
2019-01-17T07:55:25.984Z,84.89
2019-01-17T07:57:55.649Z,84.93
2019-01-17T08:00:25.613Z,84.82
2019-01-17T08:02:54.843Z,84.79
2019-01-17T08:05:24.042Z,84.73
2019-01-17T08:07:53.525Z,84.80
2019-01-17T08:10:22.728Z,84.79
2019-01-17T08:12:51.917Z,84.84
2019-01-17T08:15:21.334Z,84.80
2019-01-17T08:17:50.522Z,84.81
2019-01-17T08:20:24.846Z,84.80
2019-01-17T08:22:54.324Z,84.72
2019-01-17T08:25:23.577Z,84.74
2019-01-17T08:27:53.029Z,84.67
2019-01-17T08:30:27.451Z,84.69
2019-01-17T08:32:56.858Z,84.62
2019-01-17T08:35:26.093Z,84.64
2019-01-17T08:37:55.304Z,84.65
2019-01-17T08:40:34.890Z,84.60
2019-01-17T08:43:04.435Z,84.63
2019-01-17T08:45:33.695Z,84.65
2019-01-17T08:48:03.113Z,84.56
2019-01-17T08:50:32.370Z,84.53
2019-01-17T08:53:01.552Z,84.52
2019-01-17T08:55:30.994Z,84.47
2019-01-17T08:58:00.212Z,84.41
2019-01-17T09:00:29.401Z,84.32
2019-01-17T09:02:58.998Z,84.33
2019-01-17T09:05:28.306Z,84.34
2019-01-17T09:07:57.634Z,84.30
2019-01-17T09:10:29.862Z,84.21
2019-01-17T09:12:59.138Z,84.22
2019-01-17T09:15:30.529Z,84.16
2019-01-17T09:18:00.768Z,84.17
2019-01-17T09:20:30.006Z,84.10
2019-01-17T09:22:59.206Z,84.01
2019-01-17T09:25:28.557Z,83.93
2019-01-17T09:27:58.063Z,83.96
2019-01-17T09:30:27.267Z,83.92
2019-01-17T09:32:56.667Z,83.94
2019-01-17T09:35:26.224Z,83.94
2019-01-17T09:37:55.526Z,83.91
2019-01-17T09:40:25.892Z,83.87
2019-01-17T09:42:55.131Z,83.81
2019-01-17T09:45:24.735Z,83.74
2019-01-17T09:47:54.281Z,83.73
2019-01-17T09:50:25.480Z,83.72
2019-01-17T09:52:54.678Z,83.72
2019-01-17T09:55:24.144Z,83.63
2019-01-17T09:57:53.394Z,83.58
2019-01-17T10:00:25.719Z,83.51
2019-01-17T10:02:54.893Z,83.45
2019-01-17T10:05:24.732Z,83.36
2019-01-17T10:07:54.111Z,83.29
2019-01-17T10:10:24.023Z,83.31
2019-01-17T10:12:53.428Z,83.14
2019-01-17T10:15:53.135Z,83.09
2019-01-17T10:19:08.968Z,83.00
2019-01-17T10:22:07.230Z,83.01
2019-01-17T10:24:48.112Z,82.98
2019-01-17T10:27:43.898Z,82.78
2019-01-17T10:31:12.356Z,82.69
2019-01-17T10:34:19.781Z,82.72
2019-01-17T10:37:44.040Z,82.66
2019-01-17T10:41:02.626Z,82.43
2019-01-17T10:43:55.509Z,82.34
2019-01-17T10:46:58.874Z,82.32
2019-01-17T10:49:58.848Z,82.26
2019-01-17T10:52:58.293Z,82.24
2019-01-17T10:55:52.925Z,82.05
2019-01-17T10:58:31.608Z,82.03
2019-01-17T11:01:32.918Z,82.02
2019-01-17T11:04:45.493Z,81.86
2019-01-17T11:07:45.571Z,81.94
2019-01-17T11:10:59.129Z,82.22
2019-01-17T11:13:58.598Z,82.07
2019-01-17T11:17:07.672Z,82.00
2019-01-17T11:20:35.884Z,81.85
2019-01-17T11:23:58.252Z,81.66
2019-01-17T11:26:58.898Z,81.56
2019-01-17T11:29:53.631Z,81.43
2019-01-17T11:33:15.876Z,81.41
2019-01-17T11:36:23.596Z,81.39
2019-01-17T11:39:30.387Z,81.29
2019-01-17T11:42:53.003Z,81.22
2019-01-17T11:45:58.069Z,81.19
2019-01-17T11:49:11.576Z,81.04
2019-01-17T11:51:56.679Z,80.95
2019-01-17T11:55:03.014Z,80.93
2019-01-17T11:57:53.609Z,80.86
2019-01-17T12:00:51.394Z,80.81
2019-01-17T12:04:07.426Z,80.83
2019-01-17T12:06:36.880Z,80.82
2019-01-17T12:09:07.975Z,80.81
2019-01-17T12:11:37.464Z,80.74
2019-01-17T12:14:06.643Z,80.69
2019-01-17T12:16:35.842Z,80.62
2019-01-17T12:19:06.142Z,80.44
2019-01-17T12:21:35.540Z,80.49
2019-01-17T12:24:04.945Z,80.30
2019-01-17T12:26:34.197Z,80.13
2019-01-17T12:29:03.391Z,80.04
2019-01-17T12:31:32.846Z,79.94
2019-01-17T12:34:02.061Z,79.99
2019-01-17T12:36:31.252Z,80.00
2019-01-17T12:39:00.695Z,79.93
2019-01-17T12:41:29.914Z,79.82
2019-01-17T12:43:59.164Z,79.61
2019-01-17T12:46:28.432Z,79.63
2019-01-17T12:48:58.019Z,79.61
2019-01-17T12:51:27.222Z,79.53
2019-01-17T12:53:56.548Z,79.41
2019-01-17T12:56:25.887Z,79.28
2019-01-17T12:58:55.095Z,79.23
2019-01-17T13:01:24.545Z,79.20
2019-01-17T13:03:53.782Z,79.04
2019-01-17T13:06:22.988Z,78.93
2019-01-17T13:08:52.291Z,78.72
2019-01-17T13:11:21.667Z,78.73
2019-01-17T13:13:50.889Z,78.55
2019-01-17T13:16:20.655Z,78.52
2019-01-17T13:18:49.898Z,78.48
2019-01-17T13:21:19.426Z,78.54
2019-01-17T13:23:48.719Z,78.57
2019-01-17T13:26:18.346Z,78.58
2019-01-17T13:28:47.961Z,78.45
2019-01-17T13:31:17.383Z,78.41
2019-01-17T13:33:46.715Z,78.34
2019-01-17T13:36:15.920Z,78.30
2019-01-17T13:38:45.385Z,78.17
2019-01-17T13:41:15.528Z,78.00
2019-01-17T13:43:45.213Z,77.79
2019-01-17T13:46:14.400Z,77.76
2019-01-17T13:48:43.702Z,77.85
2019-01-17T13:51:13.104Z,77.83
2019-01-17T13:53:42.332Z,77.60
2019-01-17T13:56:11.585Z,77.39
2019-01-17T13:58:41.015Z,77.43
2019-01-17T14:01:10.262Z,77.34
2019-01-17T14:03:39.655Z,77.21
2019-01-17T14:06:09.418Z,77.19
2019-01-17T14:08:38.599Z,77.25
2019-01-17T14:11:07.894Z,77.24
2019-01-17T14:13:37.514Z,77.18
2019-01-17T14:16:07.462Z,77.23
2019-01-17T14:18:36.746Z,77.23
2019-01-17T14:21:06.197Z,77.31
2019-01-17T14:23:35.420Z,77.39
2019-01-17T14:26:04.793Z,77.52
2019-01-17T14:28:34.155Z,77.50
2019-01-17T14:31:03.642Z,77.56
2019-01-17T14:33:32.911Z,77.58
2019-01-17T14:36:02.217Z,77.62
2019-01-17T14:38:31.688Z,77.66
2019-01-17T14:41:01.035Z,77.70
2019-01-17T14:43:30.577Z,77.70
2019-01-17T14:46:02.620Z,77.76
2019-01-17T14:48:32.036Z,77.82
2019-01-17T14:51:01.622Z,77.90
2019-01-17T14:53:30.820Z,77.94
2019-01-17T14:56:00.171Z,77.92
2019-01-17T14:58:29.372Z,77.96
2019-01-17T15:00:58.786Z,77.98
2019-01-17T15:03:28.331Z,78.06
2019-01-17T15:05:57.522Z,78.01
2019-01-17T15:08:26.810Z,78.04
2019-01-17T15:10:56.135Z,78.16
2019-01-17T15:13:25.437Z,78.23
2019-01-17T15:15:54.735Z,78.25
2019-01-17T15:18:24.138Z,78.29
2019-01-17T15:20:53.679Z,78.35
2019-01-17T15:23:22.911Z,78.40
2019-01-17T15:25:52.359Z,78.50
2019-01-17T15:28:21.555Z,78.56
2019-01-17T15:30:50.993Z,78.65
2019-01-17T15:33:20.360Z,78.66
2019-01-17T15:35:49.564Z,78.67
2019-01-17T15:38:21.408Z,78.77
2019-01-17T15:40:50.651Z,78.79
2019-01-17T15:43:19.867Z,78.83
2019-01-17T15:45:49.177Z,78.92
2019-01-17T15:48:18.401Z,78.94
2019-01-17T15:50:47.758Z,78.97
2019-01-17T15:53:17.299Z,79.06
2019-01-17T15:55:46.678Z,79.13
2019-01-17T15:58:15.865Z,79.09
2019-01-17T16:00:45.269Z,79.01
2019-01-17T16:03:14.503Z,78.95
2019-01-17T16:05:43.825Z,78.95
2019-01-17T16:08:13.098Z,79.08
2019-01-17T16:10:42.326Z,79.18
2019-01-17T16:13:11.548Z,79.25
2019-01-17T16:15:42.205Z,79.24
2019-01-17T16:18:11.741Z,79.11
2019-01-17T16:20:40.949Z,78.95
2019-01-17T16:23:10.440Z,78.87
2019-01-17T16:25:39.742Z,78.86
2019-01-17T16:28:08.994Z,78.85
2019-01-17T16:30:38.355Z,78.83
2019-01-17T16:33:07.602Z,78.84
2019-01-17T16:35:36.801Z,78.87
2019-01-17T16:38:06.303Z,78.83
2019-01-17T16:40:35.548Z,78.91
2019-01-17T16:43:04.726Z,78.88
2019-01-17T16:45:35.541Z,78.86
2019-01-17T16:48:05.130Z,78.89
2019-01-17T16:50:34.323Z,78.87
2019-01-17T16:53:04.914Z,78.87
2019-01-17T16:55:34.175Z,78.86
2019-01-17T16:58:03.383Z,78.85
2019-01-17T17:00:39.088Z,78.78
2019-01-17T17:03:09.208Z,78.89
2019-01-17T17:05:38.894Z,78.94
2019-01-17T17:08:08.223Z,78.95
2019-01-17T17:10:37.395Z,78.95
2019-01-17T17:13:06.603Z,78.99
2019-01-17T17:15:36.066Z,78.94
2019-01-17T17:18:05.368Z,79.05
2019-01-17T17:20:34.652Z,79.06
2019-01-17T17:23:04.067Z,79.13
2019-01-17T17:25:33.283Z,79.11
2019-01-17T17:28:02.473Z,79.17
2019-01-17T17:30:31.782Z,79.21
2019-01-17T17:33:00.987Z,79.23
2019-01-17T17:35:30.207Z,79.22
2019-01-17T17:37:59.591Z,79.26
2019-01-17T17:40:30.393Z,79.26
2019-01-17T17:42:59.587Z,79.29
2019-01-17T17:45:30.960Z,79.28
2019-01-17T17:48:03.485Z,79.31
2019-01-17T17:50:32.771Z,79.27
2019-01-17T17:53:02.032Z,79.25
2019-01-17T17:55:31.230Z,79.33
2019-01-17T17:58:02.341Z,79.32
2019-01-17T18:00:42.714Z,79.29
2019-01-17T18:03:12.022Z,79.28
2019-01-17T18:05:41.373Z,79.29
2019-01-17T18:08:10.745Z,79.28
2019-01-17T18:10:40.123Z,79.29
2019-01-17T18:13:11.345Z,79.27
2019-01-17T18:15:49.702Z,79.31
2019-01-17T18:18:18.892Z,79.25
2019-01-17T18:20:48.101Z,79.29
2019-01-17T18:23:17.528Z,79.35
2019-01-17T18:25:46.885Z,79.39
2019-01-17T18:28:16.092Z,79.41
2019-01-17T18:30:45.680Z,79.44
2019-01-17T18:33:15.006Z,79.48
2019-01-17T18:35:44.239Z,79.52
2019-01-17T18:38:13.781Z,79.53
2019-01-17T18:40:43.038Z,79.54
2019-01-17T18:43:12.191Z,79.53
2019-01-17T18:45:41.687Z,79.56
2019-01-17T18:48:10.901Z,79.56
2019-01-17T18:50:40.095Z,79.59
2019-01-17T18:53:09.582Z,79.61
2019-01-17T18:55:38.884Z,79.64
2019-01-17T18:58:15.387Z,79.72
2019-01-17T19:00:40.281Z,79.76
2019-01-17T19:03:09.471Z,79.79
2019-01-17T19:05:38.855Z,79.82
2019-01-17T19:08:08.761Z,79.78
2019-01-17T19:10:37.968Z,79.78
2019-01-17T19:13:07.158Z,79.84
2019-01-17T19:15:37.283Z,79.88
2019-01-17T19:18:06.617Z,79.90
2019-01-17T19:20:35.861Z,79.98
2019-01-17T19:23:05.386Z,80.06
2019-01-17T19:25:35.635Z,80.02
2019-01-17T19:28:05.038Z,80.08
2019-01-17T19:30:34.510Z,80.16
2019-01-17T19:33:04.283Z,80.16
2019-01-17T19:35:33.493Z,80.20
2019-01-17T19:38:02.889Z,80.26
2019-01-17T19:40:32.085Z,80.31
2019-01-17T19:43:02.371Z,80.32
2019-01-17T19:45:31.789Z,80.29
2019-01-17T19:48:01.037Z,80.26
2019-01-17T19:50:32.290Z,80.22
2019-01-17T19:53:01.841Z,80.24
2019-01-17T19:55:31.140Z,80.19
2019-01-17T19:58:00.341Z,80.19
2019-01-17T20:00:29.643Z,80.21
2019-01-17T20:02:58.834Z,80.26
2019-01-17T20:05:29.323Z,80.30
2019-01-17T20:07:58.810Z,80.28
2019-01-17T20:10:30.067Z,80.23
2019-01-17T20:12:59.383Z,80.20
2019-01-17T20:15:28.891Z,80.19
2019-01-17T20:17:58.124Z,80.10
2019-01-17T20:20:31.789Z,80.15
2019-01-17T20:22:58.695Z,80.16
2019-01-17T20:25:27.941Z,80.15
2019-01-17T20:27:57.242Z,80.14
2019-01-17T20:30:28.874Z,80.10
2019-01-17T20:32:59.857Z,80.09
2019-01-17T20:35:29.110Z,80.06
2019-01-17T20:37:58.835Z,79.96
2019-01-17T20:40:28.042Z,79.92
2019-01-17T20:42:57.260Z,79.95
2019-01-17T20:45:26.591Z,80.00
2019-01-17T20:47:55.802Z,80.00
2019-01-17T20:50:27.789Z,79.92
2019-01-17T20:52:57.051Z,80.00
2019-01-17T20:55:26.250Z,80.00
2019-01-17T20:57:55.781Z,80.06
2019-01-17T21:00:39.901Z,80.04
2019-01-17T21:03:10.982Z,80.09
2019-01-17T21:05:40.170Z,80.15
2019-01-17T21:08:09.457Z,80.16
2019-01-17T21:10:38.864Z,80.24
2019-01-17T21:13:08.606Z,80.30
2019-01-17T21:15:37.841Z,80.37
2019-01-17T21:18:07.272Z,80.33
2019-01-17T21:20:36.509Z,80.41
2019-01-17T21:23:06.251Z,80.44
2019-01-17T21:25:35.528Z,80.46
2019-01-17T21:28:04.734Z,80.43
2019-01-17T21:30:34.162Z,80.45
2019-01-17T21:33:06.987Z,80.41
2019-01-17T21:35:34.496Z,80.40
2019-01-17T21:38:03.735Z,80.42
2019-01-17T21:40:33.122Z,80.45
2019-01-17T21:43:02.449Z,80.47
2019-01-17T21:45:31.747Z,80.46
2019-01-17T21:48:01.348Z,80.37
2019-01-17T21:50:32.021Z,80.32
2019-01-17T21:53:01.294Z,80.16
2019-01-17T21:55:30.763Z,80.12
2019-01-17T21:57:59.949Z,80.04
2019-01-17T22:00:29.213Z,79.86
2019-01-17T22:02:58.475Z,79.81
2019-01-17T22:05:27.671Z,79.72
2019-01-17T22:07:57.010Z,79.67
2019-01-17T22:10:26.387Z,79.60
2019-01-17T22:12:55.586Z,79.51
2019-01-17T22:15:25.730Z,79.55
2019-01-17T22:17:55.045Z,79.53
2019-01-17T22:20:24.510Z,79.54
2019-01-17T22:22:53.736Z,79.57
2019-01-17T22:25:23.180Z,79.61
2019-01-17T22:27:52.560Z,79.65
2019-01-17T22:30:23.863Z,79.63
2019-01-17T22:32:53.186Z,79.62
2019-01-17T22:35:22.605Z,79.60
2019-01-17T22:37:51.778Z,79.64
2019-01-17T22:40:21.172Z,79.60
2019-01-17T22:42:50.739Z,79.61
2019-01-17T22:45:22.459Z,79.65
2019-01-17T22:47:51.820Z,79.56
2019-01-17T22:50:21.030Z,79.53
2019-01-17T22:52:50.465Z,79.48
2019-01-17T22:55:19.893Z,79.47
2019-01-17T22:57:49.097Z,79.41
2019-01-17T23:00:52.288Z,79.46
2019-01-17T23:03:33.894Z,79.50
2019-01-17T23:06:03.227Z,79.36
2019-01-17T23:08:32.428Z,79.34
2019-01-17T23:11:01.785Z,79.34
2019-01-17T23:13:31.282Z,79.24
2019-01-17T23:16:00.481Z,79.39
2019-01-17T23:18:29.679Z,79.32
2019-01-17T23:20:59.292Z,79.28
2019-01-17T23:23:28.621Z,79.25
2019-01-17T23:25:57.894Z,79.26
2019-01-17T23:28:27.330Z,79.31
2019-01-17T23:30:56.510Z,79.32
2019-01-17T23:33:25.798Z,79.30
2019-01-17T23:35:55.272Z,79.28
2019-01-17T23:38:24.465Z,79.28
2019-01-17T23:40:53.686Z,79.32
2019-01-17T23:43:23.186Z,79.27
2019-01-17T23:45:52.385Z,79.27
2019-01-17T23:48:21.594Z,79.33
2019-01-17T23:50:51.193Z,79.34
2019-01-17T23:53:20.656Z,79.33
2019-01-17T23:55:49.841Z,79.33
2019-01-17T23:58:19.194Z,79.32
